createdAt,value
2019-03-04T00:00:02.875Z,8.2
2019-03-04T00:01:03.365Z,8.2
2019-03-04T00:02:02.945Z,8.1
2019-03-04T00:03:03.716Z,8.1
2019-03-04T00:04:03.187Z,8.1
2019-03-04T00:05:03.777Z,8.1
2019-03-04T00:06:03.611Z,8.1
2019-03-04T00:07:03.536Z,8
2019-03-04T00:08:03.492Z,8
2019-03-04T00:09:03.706Z,8
2019-03-04T00:10:03.527Z,7.9
2019-03-04T00:11:03.623Z,7.9
2019-03-04T00:12:02.803Z,7.9
2019-03-04T00:13:02.566Z,7.9
2019-03-04T00:14:03.335Z,7.9
2019-03-04T00:15:03.470Z,7.9
2019-03-04T00:16:03.361Z,7.9
2019-03-04T00:17:03.436Z,7.9
2019-03-04T00:18:03.100Z,7.9
2019-03-04T00:19:03.263Z,7.9
2019-03-04T00:20:03.363Z,7.9
2019-03-04T00:21:03.222Z,7.9
2019-03-04T00:22:03.275Z,7.9
2019-03-04T00:23:02.945Z,8
2019-03-04T00:24:03.003Z,7.9
2019-03-04T00:25:02.900Z,8
2019-03-04T00:26:03.291Z,8
2019-03-04T00:27:03.028Z,8
2019-03-04T00:28:03.126Z,8
2019-03-04T00:29:02.863Z,8
2019-03-04T00:30:03.163Z,8
2019-03-04T00:31:02.614Z,8
2019-03-04T00:32:02.860Z,8
2019-03-04T00:33:03.005Z,8
2019-03-04T00:34:03.046Z,8
2019-03-04T00:35:03.128Z,7.9
2019-03-04T00:36:03.739Z,7.9
2019-03-04T00:37:03.408Z,7.9
2019-03-04T00:38:02.878Z,7.9
2019-03-04T00:39:02.874Z,7.9
2019-03-04T00:40:02.785Z,7.9
2019-03-04T00:41:02.918Z,7.9
2019-03-04T00:42:02.865Z,7.9
2019-03-04T00:43:03.552Z,7.9
2019-03-04T00:44:03.716Z,7.9
2019-03-04T00:45:03.890Z,7.9
2019-03-04T00:46:03.437Z,7.9
2019-03-04T00:47:03.129Z,7.9
2019-03-04T00:48:03.738Z,7.9
2019-03-04T00:49:03.492Z,7.9
2019-03-04T00:50:03.886Z,7.9
2019-03-04T00:51:03.545Z,7.9
2019-03-04T00:52:03.014Z,7.9
2019-03-04T00:53:03.543Z,7.9
2019-03-04T00:54:03.516Z,7.9
2019-03-04T00:55:03.521Z,7.9
2019-03-04T00:56:03.193Z,7.9
2019-03-04T00:57:03.600Z,7.8
2019-03-04T00:58:03.421Z,7.9
2019-03-04T00:59:03.378Z,7.8
2019-03-04T01:00:03.042Z,7.8
2019-03-04T01:01:03.393Z,7.9
2019-03-04T01:02:02.910Z,7.8
2019-03-04T01:03:03.171Z,7.8
2019-03-04T01:04:03.062Z,7.8
2019-03-04T01:05:03.039Z,7.8
2019-03-04T01:06:03.678Z,7.8
2019-03-04T01:07:02.821Z,7.6
2019-03-04T01:08:03.107Z,7.6
2019-03-04T01:09:03.165Z,7.5
2019-03-04T01:10:03.193Z,7.4
2019-03-04T01:11:02.748Z,7.4
2019-03-04T01:12:03.292Z,7.4
2019-03-04T01:13:02.623Z,7.4
2019-03-04T01:14:02.909Z,7.4
2019-03-04T01:15:02.719Z,7.4
2019-03-04T01:16:02.513Z,7.4
2019-03-04T01:17:03.713Z,7.4
2019-03-04T01:18:03.021Z,7.4
2019-03-04T01:19:02.862Z,7.4
2019-03-04T01:20:03.999Z,7.4
2019-03-04T01:21:03.646Z,7.4
2019-03-04T01:22:02.771Z,7.4
2019-03-04T01:23:02.832Z,7.4
2019-03-04T01:24:03.609Z,7.4
2019-03-04T01:25:02.959Z,7.5
2019-03-04T01:26:03.639Z,7.5
2019-03-04T01:27:03.537Z,7.5
2019-03-04T01:28:03.621Z,7.5
2019-03-04T01:29:03.711Z,7.5
2019-03-04T01:30:03.598Z,7.6
2019-03-04T01:31:03.451Z,7.6
2019-03-04T01:32:03.383Z,7.6
2019-03-04T01:33:03.032Z,7.6
2019-03-04T01:34:03.009Z,7.6
2019-03-04T01:35:03.337Z,7.6
2019-03-04T01:36:03.718Z,7.7
2019-03-04T01:37:03.239Z,7.7
2019-03-04T01:38:03.652Z,7.8
2019-03-04T01:39:03.638Z,7.8
2019-03-04T01:40:02.928Z,7.6
2019-03-04T01:41:03.425Z,7.6
2019-03-04T01:42:02.844Z,7.7
2019-03-04T01:43:03.525Z,7.6
2019-03-04T01:44:03.568Z,7.6
2019-03-04T01:45:03.640Z,7.7
2019-03-04T01:46:03.370Z,7.6
2019-03-04T01:47:03.635Z,7.6
2019-03-04T01:48:03.070Z,7.6
2019-03-04T01:49:03.466Z,7.6
2019-03-04T01:50:03.200Z,7.6
2019-03-04T01:51:03.382Z,7.7
2019-03-04T01:52:03.338Z,7.7
2019-03-04T01:53:03.246Z,7.7
2019-03-04T01:54:03.152Z,7.8
2019-03-04T01:55:03.190Z,7.7
2019-03-04T01:56:02.828Z,7.7
2019-03-04T01:57:03.331Z,7.7
2019-03-04T01:58:02.973Z,7.7
2019-03-04T01:59:03.027Z,7.6
2019-03-04T02:00:03.162Z,7.7
2019-03-04T02:01:02.980Z,7.7
2019-03-04T02:02:03.080Z,7.7
2019-03-04T02:03:02.975Z,7.7
2019-03-04T02:04:02.702Z,7.7
2019-03-04T02:05:02.938Z,7.7
2019-03-04T02:06:02.874Z,7.7
2019-03-04T02:07:02.585Z,7.7
2019-03-04T02:08:02.868Z,7.7
2019-03-04T02:09:03.829Z,7.7
2019-03-04T02:10:03.075Z,7.6
2019-03-04T02:11:02.835Z,7.6
2019-03-04T02:12:03.189Z,7.7
2019-03-04T02:13:03.756Z,7.7
2019-03-04T02:14:03.716Z,7.6
2019-03-04T02:15:02.881Z,7.6
2019-03-04T02:16:03.462Z,7.4
2019-03-04T02:17:03.817Z,7.4
2019-03-04T02:18:03.757Z,7.4
2019-03-04T02:19:03.754Z,7.4
2019-03-04T02:20:03.561Z,7.4
2019-03-04T02:21:03.441Z,7.4
2019-03-04T02:22:03.506Z,7.3
2019-03-04T02:23:03.740Z,7.3
2019-03-04T02:24:03.593Z,7.3
2019-03-04T02:25:03.710Z,7.3
2019-03-04T02:26:03.269Z,7.2
2019-03-04T02:27:03.212Z,7.2
2019-03-04T02:28:03.247Z,7.1
2019-03-04T02:29:03.213Z,7.1
2019-03-04T02:30:03.086Z,7.1
2019-03-04T02:31:03.712Z,7.1
2019-03-04T02:32:03.339Z,7.1
2019-03-04T02:33:03.074Z,7.2
2019-03-04T02:34:03.212Z,7.3
2019-03-04T02:35:03.400Z,7.3
2019-03-04T02:36:03.343Z,7.3
2019-03-04T02:37:02.889Z,7.2
2019-03-04T02:38:03.227Z,7
2019-03-04T02:39:03.201Z,6.9
2019-03-04T02:40:03.219Z,6.7
2019-03-04T02:41:03.046Z,6.6
2019-03-04T02:42:03.015Z,6.5
2019-03-04T02:43:02.853Z,6.4
2019-03-04T02:44:02.647Z,6.5
2019-03-04T02:45:03.722Z,6.5
2019-03-04T02:46:03.013Z,6.6
2019-03-04T02:47:02.908Z,6.6
2019-03-04T02:48:02.876Z,6.6
2019-03-04T02:49:03.104Z,6.6
2019-03-04T02:50:03.987Z,6.6
2019-03-04T02:51:03.232Z,6.5
2019-03-04T02:52:02.884Z,6.6
2019-03-04T02:53:02.741Z,6.6
2019-03-04T02:54:04.215Z,6.6
2019-03-04T02:55:02.765Z,6.6
2019-03-04T02:56:03.792Z,6.7
2019-03-04T02:57:03.706Z,6.7
2019-03-04T02:58:03.642Z,6.7
2019-03-04T02:59:03.370Z,6.7
2019-03-04T03:00:03.613Z,6.7
2019-03-04T03:01:03.357Z,6.8
2019-03-04T03:02:03.617Z,6.7
2019-03-04T03:03:03.519Z,6.8
2019-03-04T03:04:03.466Z,6.8
2019-03-04T03:05:03.408Z,6.8
2019-03-04T03:06:03.291Z,6.8
2019-03-04T03:07:03.032Z,6.8
2019-03-04T03:08:02.991Z,6.8
2019-03-04T03:09:03.035Z,6.8
2019-03-04T03:10:03.002Z,6.7
2019-03-04T03:11:03.186Z,6.7
2019-03-04T03:12:03.161Z,6.6
2019-03-04T03:13:03.461Z,6.6
2019-03-04T03:14:03.231Z,6.6
2019-03-04T03:15:03.522Z,6.6
2019-03-04T03:16:03.301Z,6.6
2019-03-04T03:17:03.162Z,6.6
2019-03-04T03:18:03.280Z,6.6
2019-03-04T03:19:03.149Z,6.6
2019-03-04T03:20:03.178Z,6.6
2019-03-04T03:21:02.610Z,6.5
2019-03-04T03:22:02.935Z,6.5
2019-03-04T03:23:03.585Z,6.5
2019-03-04T03:24:02.850Z,6.5
2019-03-04T03:25:03.949Z,6.4
2019-03-04T03:26:02.798Z,6.3
2019-03-04T03:27:02.893Z,6.3
2019-03-04T03:28:02.733Z,6.4
2019-03-04T03:29:02.930Z,6.4
2019-03-04T03:30:02.973Z,6.3
2019-03-04T03:31:02.883Z,6.2
2019-03-04T03:32:03.500Z,6.1
2019-03-04T03:33:03.064Z,6.1
2019-03-04T03:34:03.540Z,6.1
2019-03-04T03:35:09.180Z,6.1
2019-03-04T03:36:03.498Z,6
2019-03-04T03:37:03.268Z,5.9
2019-03-04T03:38:03.456Z,5.9
2019-03-04T03:39:03.805Z,5.9
2019-03-04T03:40:03.506Z,5.9
2019-03-04T03:41:03.463Z,5.9
2019-03-04T03:42:03.341Z,5.8
2019-03-04T03:43:03.251Z,5.6
2019-03-04T03:44:03.076Z,5.6
2019-03-04T03:45:03.315Z,5.7
2019-03-04T03:46:03.266Z,5.7
2019-03-04T03:47:02.909Z,5.6
2019-03-04T03:48:03.356Z,5.7
2019-03-04T03:49:02.884Z,5.8
2019-03-04T03:50:03.246Z,5.7
2019-03-04T03:51:03.825Z,5.7
2019-03-04T03:52:03.001Z,5.8
2019-03-04T03:53:02.926Z,5.8
2019-03-04T03:54:02.966Z,5.6
2019-03-04T03:55:02.892Z,5.5
2019-03-04T03:56:03.185Z,5.4
2019-03-04T03:57:03.064Z,5.4
2019-03-04T03:58:02.766Z,5.4
2019-03-04T03:59:02.548Z,5.4
2019-03-04T04:00:02.983Z,5.5
2019-03-04T04:01:03.041Z,5.5
2019-03-04T04:02:03.089Z,5.6
2019-03-04T04:03:03.746Z,5.5
2019-03-04T04:04:02.856Z,5.5
2019-03-04T04:05:03.773Z,5.5
2019-03-04T04:06:03.643Z,5.5
2019-03-04T04:07:03.783Z,5.4
2019-03-04T04:08:03.725Z,5.4
2019-03-04T04:09:03.829Z,5.4
2019-03-04T04:10:02.715Z,5.4
2019-03-04T04:11:03.709Z,5.3
2019-03-04T04:12:03.716Z,5.3
2019-03-04T04:13:03.509Z,5.3
2019-03-04T04:14:03.458Z,5.3
2019-03-04T04:15:03.606Z,5.2
2019-03-04T04:16:03.435Z,5.2
2019-03-04T04:17:02.620Z,5.2
2019-03-04T04:18:02.976Z,5.1
2019-03-04T04:19:03.239Z,5.1
2019-03-04T04:20:03.225Z,5.2
2019-03-04T04:21:03.323Z,5.3
2019-03-04T04:22:03.231Z,5.3
2019-03-04T04:23:03.043Z,5.3
2019-03-04T04:24:03.525Z,5.3
2019-03-04T04:25:03.126Z,5.3
2019-03-04T04:26:03.090Z,5.1
2019-03-04T04:27:03.146Z,5.1
2019-03-04T04:28:03.315Z,5.1
2019-03-04T04:29:03.406Z,5.1
2019-03-04T04:30:02.772Z,5.2
2019-03-04T04:31:03.147Z,5.1
2019-03-04T04:32:03.207Z,5.1
2019-03-04T04:33:03.080Z,5
2019-03-04T04:34:02.947Z,4.8
2019-03-04T04:35:03.186Z,4.8
2019-03-04T04:36:02.648Z,4.8
2019-03-04T04:37:02.766Z,4.7
2019-03-04T04:38:02.850Z,4.6
2019-03-04T04:39:02.839Z,4.6
2019-03-04T04:40:03.038Z,4.6
2019-03-04T04:41:03.537Z,4.7
2019-03-04T04:42:02.894Z,4.6
2019-03-04T04:43:03.608Z,4.6
2019-03-04T04:44:03.422Z,4.6
2019-03-04T04:45:02.879Z,4.6
2019-03-04T04:46:02.959Z,4.6
2019-03-04T04:47:03.452Z,4.5
2019-03-04T04:48:03.616Z,4.5
2019-03-04T04:49:03.477Z,4.4
2019-03-04T04:50:03.480Z,4.4
2019-03-04T04:51:03.391Z,4.4
2019-03-04T04:52:03.449Z,4.3
2019-03-04T04:53:03.462Z,4.3
2019-03-04T04:54:03.423Z,4.4
2019-03-04T04:55:03.602Z,4.4
2019-03-04T04:56:03.376Z,4.3
2019-03-04T04:57:03.061Z,4.3
2019-03-04T04:58:03.378Z,4.3
2019-03-04T04:59:03.208Z,4.3
2019-03-04T05:00:03.255Z,4.2
2019-03-04T05:01:02.943Z,3.9
2019-03-04T05:02:03.238Z,3.9
2019-03-04T05:03:03.239Z,3.9
2019-03-04T05:04:02.833Z,3.8
2019-03-04T05:05:02.825Z,3.8
2019-03-04T05:06:03.010Z,3.8
2019-03-04T05:07:03.120Z,3.7
2019-03-04T05:08:03.522Z,3.8
2019-03-04T05:09:03.339Z,3.8
2019-03-04T05:10:03.079Z,3.9
2019-03-04T05:11:03.172Z,3.8
2019-03-04T05:12:02.855Z,3.9
2019-03-04T05:13:02.523Z,3.9
2019-03-04T05:14:03.128Z,3.9
2019-03-04T05:15:03.126Z,4.1
2019-03-04T05:16:02.938Z,4
2019-03-04T05:17:03.006Z,4.1
2019-03-04T05:18:03.155Z,4.1
2019-03-04T05:19:02.841Z,4.2
2019-03-04T05:20:03.696Z,4.1
2019-03-04T05:21:03.514Z,4.1
2019-03-04T05:22:02.897Z,4.1
2019-03-04T05:23:03.944Z,4.1
2019-03-04T05:24:02.410Z,4.1
2019-03-04T05:25:04.266Z,4.1
2019-03-04T05:26:03.523Z,4.1
2019-03-04T05:27:02.763Z,4.1
2019-03-04T05:28:03.321Z,4.1
2019-03-04T05:29:03.419Z,4.1
2019-03-04T05:30:03.031Z,4.1
2019-03-04T05:31:03.581Z,4.1
2019-03-04T05:32:03.092Z,4.1
2019-03-04T05:33:03.289Z,3.9
2019-03-04T05:34:03.327Z,3.9
2019-03-04T05:35:03.322Z,3.9
2019-03-04T05:36:03.330Z,3.9
2019-03-04T05:37:02.949Z,4
2019-03-04T05:38:03.285Z,3.9
2019-03-04T05:39:02.827Z,3.9
2019-03-04T05:40:02.993Z,3.9
2019-03-04T05:41:02.717Z,3.8
2019-03-04T05:42:03.912Z,3.5
2019-03-04T05:43:02.816Z,3.4
2019-03-04T05:44:02.795Z,3.3
2019-03-04T05:45:03.007Z,3.4
2019-03-04T05:46:03.598Z,3.4
2019-03-04T05:47:02.801Z,3.5
2019-03-04T05:48:03.796Z,3.6
2019-03-04T05:49:03.549Z,3.6
2019-03-04T05:50:03.388Z,3.4
2019-03-04T05:51:03.233Z,3.3
2019-03-04T05:52:03.198Z,3.4
2019-03-04T05:53:03.557Z,3.5
2019-03-04T05:54:02.871Z,3.5
2019-03-04T05:55:03.515Z,3.6
2019-03-04T05:56:02.913Z,3.6
2019-03-04T05:57:03.383Z,3.4
2019-03-04T05:58:03.279Z,3.4
2019-03-04T05:59:03.083Z,3.4
2019-03-04T06:00:03.296Z,3.4
2019-03-04T06:01:03.302Z,3.3
2019-03-04T06:02:03.351Z,3.4
2019-03-04T06:03:03.250Z,3.4
2019-03-04T06:04:03.321Z,3.3
2019-03-04T06:05:03.142Z,3.4
2019-03-04T06:06:03.101Z,3.5
2019-03-04T06:07:03.102Z,3.5
2019-03-04T06:08:02.972Z,3.5
2019-03-04T06:09:02.940Z,3.5
2019-03-04T06:10:03.243Z,3.6
2019-03-04T06:11:03.035Z,3.6
2019-03-04T06:12:02.814Z,3.6
2019-03-04T06:13:02.597Z,3.6
2019-03-04T06:14:03.419Z,3.3
2019-03-04T06:15:03.091Z,3.1
2019-03-04T06:16:03.198Z,3.2
2019-03-04T06:17:02.928Z,3.3
2019-03-04T06:18:02.757Z,3.1
2019-03-04T06:19:03.151Z,2.9
2019-03-04T06:20:02.585Z,2.9
2019-03-04T06:21:02.761Z,2.9
2019-03-04T06:22:03.698Z,3.3
2019-03-04T06:23:03.095Z,3.4
2019-03-04T06:24:03.725Z,3.5
2019-03-04T06:25:03.134Z,3.5
2019-03-04T06:26:03.647Z,3.7
2019-03-04T06:27:02.746Z,3.7
2019-03-04T06:28:03.672Z,3.7
2019-03-04T06:29:02.808Z,3.8
2019-03-04T06:30:03.718Z,3.8
2019-03-04T06:31:03.650Z,3.8
2019-03-04T06:32:02.794Z,3.8
2019-03-04T06:33:02.699Z,3.9
2019-03-04T06:34:03.372Z,3.9
2019-03-04T06:35:03.552Z,4
2019-03-04T06:36:03.495Z,4.1
2019-03-04T06:37:03.373Z,3.9
2019-03-04T06:38:03.659Z,3.8
2019-03-04T06:39:03.317Z,3.8
2019-03-04T06:40:03.618Z,3.9
2019-03-04T06:41:03.210Z,3.9
2019-03-04T06:42:03.343Z,3.9
2019-03-04T06:43:02.855Z,3.9
2019-03-04T06:44:03.384Z,4
2019-03-04T06:45:03.450Z,4
2019-03-04T06:46:02.890Z,4.2
2019-03-04T06:47:03.151Z,4.3
2019-03-04T06:48:03.296Z,4.5
2019-03-04T06:49:03.267Z,4.6
2019-03-04T06:50:03.122Z,4.7
2019-03-04T06:51:03.028Z,4.7
2019-03-04T06:52:02.778Z,4.8
2019-03-04T06:53:03.219Z,4.9
2019-03-04T06:54:03.219Z,5.1
2019-03-04T06:55:03.390Z,5.3
2019-03-04T06:56:03.084Z,5.4
2019-03-04T06:57:03.153Z,5.6
2019-03-04T06:58:03.698Z,5.7
2019-03-04T06:59:02.902Z,5.7
2019-03-04T07:00:02.839Z,5.8
2019-03-04T07:01:02.852Z,5.8
2019-03-04T07:02:02.771Z,5.9
2019-03-04T07:03:02.707Z,5.9
2019-03-04T07:04:02.905Z,5.8
2019-03-04T07:05:03.205Z,5.8
2019-03-04T07:06:02.668Z,5.8
2019-03-04T07:07:02.809Z,5.8
2019-03-04T07:08:02.761Z,5.8
2019-03-04T07:09:03.503Z,5.8
2019-03-04T07:10:03.839Z,5.9
2019-03-04T07:11:02.801Z,5.9
2019-03-04T07:12:02.995Z,6
2019-03-04T07:13:03.198Z,6.1
2019-03-04T07:14:03.038Z,6.1
2019-03-04T07:15:03.855Z,6.2
2019-03-04T07:16:03.338Z,6.3
2019-03-04T07:17:02.896Z,6.3
2019-03-04T07:18:03.217Z,6.4
2019-03-04T07:19:03.649Z,6.4
2019-03-04T07:20:03.028Z,6.5
2019-03-04T07:21:03.662Z,6.6
2019-03-04T07:22:03.511Z,6.6
2019-03-04T07:23:03.741Z,6.7
2019-03-04T07:24:03.715Z,6.8
2019-03-04T07:25:03.397Z,6.8
2019-03-04T07:26:03.468Z,6.8
2019-03-04T07:27:03.757Z,6.8
2019-03-04T07:28:03.509Z,6.6
2019-03-04T07:29:03.670Z,6.6
2019-03-04T07:30:03.343Z,6.7
2019-03-04T07:31:03.592Z,6.8
2019-03-04T07:32:03.354Z,6.8
2019-03-04T07:33:03.856Z,6.8
2019-03-04T07:34:03.221Z,6.9
2019-03-04T07:35:03.350Z,6.9
2019-03-04T07:36:03.203Z,6.9
2019-03-04T07:37:03.184Z,7
2019-03-04T07:38:03.315Z,7
2019-03-04T07:39:03.052Z,7
2019-03-04T07:40:03.112Z,7
2019-03-04T07:41:02.712Z,7.1
2019-03-04T07:42:03.255Z,7.1
2019-03-04T07:43:02.987Z,7.2
2019-03-04T07:44:03.113Z,7.3
2019-03-04T07:45:02.999Z,7.3
2019-03-04T07:46:03.030Z,7.4
2019-03-04T07:47:02.993Z,7.5
2019-03-04T07:48:03.709Z,7.5
2019-03-04T07:49:02.895Z,7.5
2019-03-04T07:50:03.395Z,7.6
2019-03-04T07:51:02.998Z,7.6
2019-03-04T07:52:03.459Z,7.6
2019-03-04T07:53:02.787Z,7.7
2019-03-04T07:54:03.754Z,7.6
2019-03-04T07:55:02.841Z,7.6
2019-03-04T07:56:02.512Z,7.8
2019-03-04T07:57:03.797Z,7.9
2019-03-04T07:58:03.352Z,7.9
2019-03-04T07:59:03.852Z,8.1
2019-03-04T08:00:03.606Z,8.1
2019-03-04T08:01:02.639Z,8.1
2019-03-04T08:02:02.757Z,8.3
2019-03-04T08:03:03.499Z,8.3
2019-03-04T08:04:02.725Z,8.3
2019-03-04T08:05:03.449Z,8.3
2019-03-04T08:06:03.789Z,8.4
2019-03-04T08:07:03.543Z,8.4
2019-03-04T08:08:03.477Z,8.3
2019-03-04T08:09:03.296Z,8.3
2019-03-04T08:10:03.598Z,8.4
2019-03-04T08:11:03.247Z,8.5
2019-03-04T08:12:03.171Z,8.6
2019-03-04T08:13:03.558Z,8.6
2019-03-04T08:14:03.499Z,8.8
2019-03-04T08:15:03.339Z,8.8
2019-03-04T08:16:03.843Z,8.8
2019-03-04T08:17:03.159Z,8.9
2019-03-04T08:18:02.858Z,8.8
2019-03-04T08:19:03.015Z,8.9
2019-03-04T08:20:03.109Z,8.9
2019-03-04T08:21:03.060Z,8.9
2019-03-04T08:22:03.039Z,8.9
2019-03-04T08:23:02.834Z,9.1
2019-03-04T08:24:02.774Z,9.2
2019-03-04T08:25:03.282Z,9.3
2019-03-04T08:26:03.257Z,9.3
2019-03-04T08:27:02.931Z,9.3
2019-03-04T08:28:02.942Z,9.3
2019-03-04T08:29:02.733Z,9.3
2019-03-04T08:30:02.955Z,9.4
2019-03-04T08:31:03.741Z,9.4
2019-03-04T08:32:03.386Z,9.6
2019-03-04T08:33:02.872Z,9.6
2019-03-04T08:34:02.889Z,9.8
2019-03-04T08:35:02.828Z,9.9
2019-03-04T08:36:03.059Z,10
2019-03-04T08:37:03.711Z,10
2019-03-04T08:38:02.958Z,9.9
2019-03-04T08:39:03.638Z,10.1
2019-03-04T08:40:03.499Z,10.2
2019-03-04T08:41:03.451Z,10.2
2019-03-04T08:42:03.289Z,10.4
2019-03-04T08:43:03.265Z,10.5
2019-03-04T08:44:03.244Z,10.6
2019-03-04T08:45:03.534Z,10.7
2019-03-04T08:46:03.679Z,10.7
2019-03-04T08:47:03.388Z,10.7
2019-03-04T08:48:02.830Z,10.8
2019-03-04T08:49:03.518Z,10.8
2019-03-04T08:50:03.286Z,11
2019-03-04T08:51:03.184Z,11.1
2019-03-04T08:52:03.201Z,11.2
2019-03-04T08:53:03.008Z,11.4
2019-03-04T08:54:02.765Z,11.4
2019-03-04T08:55:03.047Z,11.5
2019-03-04T08:56:03.086Z,11.5
2019-03-04T08:57:04.445Z,11.5
2019-03-04T08:58:02.764Z,11.6
2019-03-04T08:59:03.006Z,11.8
2019-03-04T09:00:02.855Z,11.9
2019-03-04T09:01:03.784Z,11.9
2019-03-04T09:02:02.756Z,12.1
2019-03-04T09:03:03.091Z,12.4
2019-03-04T09:04:02.503Z,12.6
2019-03-04T09:05:02.699Z,12.8
2019-03-04T09:06:03.785Z,13
2019-03-04T09:07:04.265Z,13.1
2019-03-04T09:08:02.537Z,13.1
2019-03-04T09:09:03.771Z,13.1
2019-03-04T09:10:03.675Z,13.3
2019-03-04T09:11:02.927Z,13.4
2019-03-04T09:12:03.519Z,13.4
2019-03-04T09:13:03.688Z,13.5
2019-03-04T09:14:03.494Z,13.8
2019-03-04T09:15:03.612Z,13.8
2019-03-04T09:16:03.493Z,13.4
2019-03-04T09:17:03.647Z,13.6
2019-03-04T09:18:03.304Z,13.8
2019-03-04T09:19:03.210Z,13.9
2019-03-04T09:20:03.307Z,14.1
2019-03-04T09:21:03.121Z,13.8
2019-03-04T09:22:02.751Z,13.4
2019-03-04T09:23:02.926Z,13.4
2019-03-04T09:24:03.395Z,13.4
2019-03-04T09:25:03.138Z,13.7
2019-03-04T09:26:02.697Z,13.5
2019-03-04T09:27:03.236Z,13.8
2019-03-04T09:28:03.339Z,14.1
2019-03-04T09:29:03.003Z,14.3
2019-03-04T09:30:02.960Z,14.8
2019-03-04T09:31:03.655Z,14.8
2019-03-04T09:32:02.958Z,14.8
2019-03-04T09:33:02.727Z,14.8
2019-03-04T09:34:02.887Z,15.1
2019-03-04T09:35:03.118Z,15.4
2019-03-04T09:36:02.642Z,15.4
2019-03-04T09:37:03.622Z,15.4
2019-03-04T09:38:03.162Z,15.7
2019-03-04T09:39:03.280Z,15.7
2019-03-04T09:40:03.197Z,15.9
2019-03-04T09:41:03.223Z,15.8
2019-03-04T09:42:03.001Z,15.8
2019-03-04T09:43:02.642Z,15.2
2019-03-04T09:44:02.959Z,14.8
2019-03-04T09:45:03.024Z,14.9
2019-03-04T09:46:03.795Z,15.1
2019-03-04T09:47:03.737Z,15.5
2019-03-04T09:48:03.042Z,15.6
2019-03-04T09:49:03.794Z,15.7
2019-03-04T09:50:03.639Z,15.8
2019-03-04T09:51:03.656Z,15.8
2019-03-04T09:52:03.504Z,15.8
2019-03-04T09:53:03.313Z,15.6
2019-03-04T09:54:03.647Z,15.6
2019-03-04T09:55:03.518Z,15.4
2019-03-04T09:56:03.620Z,15.3
2019-03-04T09:57:03.124Z,15.2
2019-03-04T09:58:03.625Z,15.1
2019-03-04T09:59:03.364Z,15.1
2019-03-04T10:00:03.665Z,15.3
2019-03-04T10:01:03.027Z,15.3
2019-03-04T10:02:03.080Z,15.3
2019-03-04T10:03:03.176Z,15.3
2019-03-04T10:04:02.019Z,15.3
2019-03-04T10:05:03.444Z,15.3
2019-03-04T10:06:03.051Z,15.2
2019-03-04T10:07:02.972Z,15.2
2019-03-04T10:08:03.579Z,15
2019-03-04T10:09:03.015Z,14.9
2019-03-04T10:10:03.121Z,15
2019-03-04T10:11:03.187Z,15
2019-03-04T10:12:03.160Z,14.9
2019-03-04T10:13:03.211Z,14.8
2019-03-04T10:14:02.882Z,14.8
2019-03-04T10:15:09.250Z,14.6
2019-03-04T10:16:02.826Z,14.6
2019-03-04T10:17:02.971Z,14.6
2019-03-04T10:18:03.948Z,14.4
2019-03-04T10:19:02.460Z,14.4
2019-03-04T10:20:02.643Z,14.4
2019-03-04T10:21:03.566Z,14.4
2019-03-04T10:22:03.311Z,14.4
2019-03-04T10:23:03.860Z,14.4
2019-03-04T10:24:03.595Z,14.4
2019-03-04T10:25:03.559Z,14.4
2019-03-04T10:26:02.935Z,14.4
2019-03-04T10:27:03.765Z,14.5
2019-03-04T10:28:03.625Z,14.6
2019-03-04T10:29:03.541Z,14.6
2019-03-04T10:30:03.605Z,14.7
2019-03-04T10:31:03.469Z,14.7
2019-03-04T10:32:03.413Z,14.8
2019-03-04T10:33:03.553Z,14.8
2019-03-04T10:34:03.419Z,14.8
2019-03-04T10:35:03.488Z,14.8
2019-03-04T10:36:03.243Z,14.9
2019-03-04T10:37:03.403Z,14.8
2019-03-04T10:38:03.005Z,14.8
2019-03-04T10:39:03.169Z,14.8
2019-03-04T10:40:03.169Z,14.8
2019-03-04T10:41:03.124Z,14.8
2019-03-04T10:42:03.157Z,14.8
2019-03-04T10:43:03.268Z,14.8
2019-03-04T10:44:02.744Z,14.9
2019-03-04T10:45:03.803Z,15.1
2019-03-04T10:46:02.979Z,15.1
2019-03-04T10:47:03.679Z,15.1
2019-03-04T10:48:03.723Z,15
2019-03-04T10:49:03.410Z,15.1
2019-03-04T10:50:02.945Z,15.3
2019-03-04T10:51:03.071Z,15.4
2019-03-04T10:52:03.714Z,15.3
2019-03-04T10:53:03.680Z,15.1
2019-03-04T10:54:03.701Z,15
2019-03-04T10:55:03.526Z,15
2019-03-04T10:56:03.325Z,15
2019-03-04T10:57:03.803Z,15.1
2019-03-04T10:58:03.484Z,15.4
2019-03-04T10:59:03.305Z,15.8
2019-03-04T11:00:03.436Z,15.8
2019-03-04T11:01:03.564Z,15.9
2019-03-04T11:02:03.271Z,16.3
2019-03-04T11:03:03.260Z,16.2
2019-03-04T11:04:03.338Z,16.1
2019-03-04T11:05:03.312Z,16
2019-03-04T11:06:03.105Z,15.7
2019-03-04T11:07:02.962Z,15.4
2019-03-04T11:08:03.050Z,15.4
2019-03-04T11:09:03.645Z,15.3
2019-03-04T11:10:03.006Z,15.3
2019-03-04T11:11:03.617Z,15.3
2019-03-04T11:12:02.870Z,15.1
2019-03-04T11:13:02.961Z,15
2019-03-04T11:14:03.477Z,15
2019-03-04T11:15:03.312Z,14.9
2019-03-04T11:16:02.513Z,14.9
2019-03-04T11:17:03.472Z,14.9
2019-03-04T11:18:03.358Z,15
2019-03-04T11:19:03.386Z,14.9
2019-03-04T11:20:03.428Z,14.9
2019-03-04T11:21:03.482Z,14.9
2019-03-04T11:22:03.272Z,15
2019-03-04T11:23:03.561Z,15.1
2019-03-04T11:24:03.246Z,15
2019-03-04T11:25:03.535Z,15.1
2019-03-04T11:26:02.797Z,15.1
2019-03-04T11:27:03.058Z,15.2
2019-03-04T11:28:03.193Z,15
2019-03-04T11:29:03.041Z,14.9
2019-03-04T11:30:03.860Z,15
2019-03-04T11:31:02.978Z,14.9
2019-03-04T11:32:03.007Z,14.8
2019-03-04T11:33:02.907Z,14.8
2019-03-04T11:34:02.813Z,14.9
2019-03-04T11:35:02.944Z,14.8
2019-03-04T11:36:03.004Z,14.4
2019-03-04T11:37:03.735Z,14.3
2019-03-04T11:38:02.878Z,14.4
2019-03-04T11:39:03.675Z,14
2019-03-04T11:40:03.751Z,13.8
2019-03-04T11:41:03.564Z,13.6
2019-03-04T11:42:03.493Z,13.4
2019-03-04T11:43:03.470Z,13.4
2019-03-04T11:44:05.078Z,13.4
2019-03-04T11:45:03.700Z,13.3
2019-03-04T11:46:03.436Z,13.1
2019-03-04T11:47:03.090Z,13.1
2019-03-04T11:48:03.329Z,12.9
2019-03-04T11:49:03.508Z,12.8
2019-03-04T11:50:03.431Z,12.6
2019-03-04T11:51:03.328Z,12.5
2019-03-04T11:52:03.341Z,12.4
2019-03-04T11:53:03.621Z,12.4
2019-03-04T11:54:03.268Z,12.4
2019-03-04T11:55:03.037Z,12.3
2019-03-04T11:56:03.116Z,12.2
2019-03-04T11:57:03.026Z,12.1
2019-03-04T11:58:03.352Z,12.3
2019-03-04T11:59:02.874Z,12.3
2019-03-04T12:00:03.322Z,12.3
2019-03-04T12:01:02.999Z,12.4
2019-03-04T12:02:03.310Z,12.4
2019-03-04T12:03:03.094Z,12.5
2019-03-04T12:04:02.969Z,12.6
2019-03-04T12:05:03.047Z,12.5
2019-03-04T12:06:03.080Z,12.6
2019-03-04T12:07:03.038Z,12.6
2019-03-04T12:08:02.812Z,12.6
2019-03-04T12:09:02.947Z,12.4
2019-03-04T12:10:02.912Z,12.4
2019-03-04T12:11:03.091Z,12.3
2019-03-04T12:12:02.784Z,12.2
2019-03-04T12:13:03.880Z,12.1
2019-03-04T12:14:03.540Z,12.1
2019-03-04T12:15:03.316Z,12.1
2019-03-04T12:16:03.729Z,12.1
2019-03-04T12:17:03.641Z,12.1
2019-03-04T12:18:03.274Z,12
2019-03-04T12:19:03.581Z,11.9
2019-03-04T12:20:03.769Z,11.8
2019-03-04T12:21:03.374Z,11.8
2019-03-04T12:22:02.967Z,11.8
2019-03-04T12:23:03.261Z,11.7
2019-03-04T12:24:03.607Z,11.6
2019-03-04T12:25:03.293Z,11.6
2019-03-04T12:26:03.329Z,11.6
2019-03-04T12:27:03.613Z,11.5
2019-03-04T12:28:02.878Z,11.5
2019-03-04T12:29:03.255Z,11.6
2019-03-04T12:30:03.320Z,11.5
2019-03-04T12:31:03.549Z,11.5
2019-03-04T12:32:02.972Z,11.4
2019-03-04T12:33:03.187Z,11.4
2019-03-04T12:34:02.923Z,11.3
2019-03-04T12:35:03.370Z,11.3
2019-03-04T12:36:03.146Z,11.2
2019-03-04T12:37:03.252Z,11.2
2019-03-04T12:38:03.183Z,11.2
2019-03-04T12:39:02.978Z,11.2
2019-03-04T12:40:03.297Z,11.2
2019-03-04T12:41:03.083Z,11.1
2019-03-04T12:42:03.137Z,11.2
2019-03-04T12:43:02.780Z,11.2
2019-03-04T12:44:03.099Z,11.2
2019-03-04T12:45:03.147Z,11.2
2019-03-04T12:46:02.753Z,11.2
2019-03-04T12:47:03.721Z,11.2
2019-03-04T12:48:03.169Z,11.2
2019-03-04T12:49:02.795Z,11.2
2019-03-04T12:50:03.493Z,11.1
2019-03-04T12:51:03.735Z,11.1
2019-03-04T12:52:03.526Z,11.1
2019-03-04T12:53:03.285Z,11
2019-03-04T12:54:03.646Z,10.9
2019-03-04T12:55:03.632Z,10.9
2019-03-04T12:56:02.912Z,10.9
2019-03-04T12:57:03.485Z,10.9
2019-03-04T12:58:03.110Z,10.9
2019-03-04T12:59:03.187Z,10.8
2019-03-04T13:00:03.414Z,10.8
2019-03-04T13:01:03.478Z,10.8
2019-03-04T13:02:02.953Z,10.7
2019-03-04T13:03:03.008Z,10.7
2019-03-04T13:04:03.326Z,10.6
2019-03-04T13:05:03.333Z,10.6
2019-03-04T13:06:03.295Z,10.6
2019-03-04T13:07:02.929Z,10.5
2019-03-04T13:08:02.895Z,10.4
2019-03-04T13:09:02.998Z,10.4
2019-03-04T13:10:03.531Z,10.4
2019-03-04T13:11:02.848Z,10.4
2019-03-04T13:12:02.914Z,10.4
2019-03-04T13:13:03.520Z,10.4
2019-03-04T13:14:02.885Z,10.3
2019-03-04T13:15:03.596Z,10.3
2019-03-04T13:16:02.890Z,10.3
2019-03-04T13:17:03.629Z,10.3
2019-03-04T13:18:03.408Z,10.3
2019-03-04T13:19:03.672Z,10.2
2019-03-04T13:20:03.530Z,10.2
2019-03-04T13:21:03.670Z,10.2
2019-03-04T13:22:09.134Z,10.1
2019-03-04T13:23:03.522Z,10.1
2019-03-04T13:24:03.500Z,10.1
2019-03-04T13:25:03.455Z,10.1
2019-03-04T13:26:03.407Z,10
2019-03-04T13:27:03.340Z,9.9
2019-03-04T13:28:08.891Z,9.8
2019-03-04T13:29:05.144Z,9.8
2019-03-04T13:30:03.361Z,9.7
2019-03-04T13:31:02.901Z,9.7
2019-03-04T13:32:03.089Z,9.6
2019-03-04T13:33:03.183Z,9.6
2019-03-04T13:34:03.017Z,9.5
2019-03-04T13:35:02.802Z,9.4
2019-03-04T13:36:03.468Z,9.4
2019-03-04T13:37:03.481Z,9.4
2019-03-04T13:38:03.408Z,9.4
2019-03-04T13:39:02.928Z,9.3